sensor_id;sensor_type;location;lat;lon;timestamp;P1;durP1;ratioP1;P2;durP2;ratioP2
12232;SDS011;6179;51.748;8.728;2022-12-18T00:02:40;7.10;;;1.70;;
12232;SDS011;6179;51.748;8.728;2022-12-18T00:08:42;1.77;;;1.67;;
12232;SDS011;6179;51.748;8.728;2022-12-18T00:14:44;2.93;;;2.67;;
12232;SDS011;6179;51.748;8.728;2022-12-18T00:20:45;4.20;;;3.07;;
12232;SDS011;6179;51.748;8.728;2022-12-18T00:26:46;7.33;;;1.60;;
12232;SDS011;6179;51.748;8.728;2022-12-18T00:32:46;0.80;;;0.70;;
12232;SDS011;6179;51.748;8.728;2022-12-18T00:38:48;1.53;;;0.60;;
12232;SDS011;6179;51.748;8.728;2022-12-18T00:44:49;1.70;;;1.40;;
12232;SDS011;6179;51.748;8.728;2022-12-18T00:50:50;4.00;;;3.03;;
12232;SDS011;6179;51.748;8.728;2022-12-18T00:56:51;15.70;;;9.37;;
12232;SDS011;6179;51.748;8.728;2022-12-18T01:02:52;26.50;;;9.13;;
12232;SDS011;6179;51.748;8.728;2022-12-18T01:08:52;30.13;;;14.00;;
12232;SDS011;6179;51.748;8.728;2022-12-18T01:14:53;23.83;;;8.07;;
12232;SDS011;6179;51.748;8.728;2022-12-18T01:20:54;14.93;;;5.73;;
12232;SDS011;6179;51.748;8.728;2022-12-18T01:26:55;11.03;;;3.93;;
12232;SDS011;6179;51.748;8.728;2022-12-18T01:32:57;8.83;;;4.73;;
12232;SDS011;6179;51.748;8.728;2022-12-18T01:39:01;2.00;;;1.83;;
12232;SDS011;6179;51.748;8.728;2022-12-18T01:51:12;3.20;;;1.10;;
12232;SDS011;6179;51.748;8.728;2022-12-18T01:57:13;2.10;;;1.40;;
12232;SDS011;6179;51.748;8.728;2022-12-18T02:03:14;4.67;;;0.67;;
12232;SDS011;6179;51.748;8.728;2022-12-18T02:09:18;2.40;;;0.70;;
12232;SDS011;6179;51.748;8.728;2022-12-18T02:15:33;1.23;;;0.90;;
12232;SDS011;6179;51.748;8.728;2022-12-18T02:28:56;3.60;;;1.10;;
12232;SDS011;6179;51.748;8.728;2022-12-18T02:35:05;0.33;;;0.33;;
12232;SDS011;6179;51.748;8.728;2022-12-18T02:41:12;5.30;;;0.97;;
12232;SDS011;6179;51.748;8.728;2022-12-18T02:47:23;1.37;;;0.83;;
12232;SDS011;6179;51.748;8.728;2022-12-18T03:00:19;1.87;;;1.20;;
12232;SDS011;6179;51.748;8.728;2022-12-18T03:06:28;2.53;;;1.33;;
12232;SDS011;6179;51.748;8.728;2022-12-18T03:12:41;2.17;;;1.27;;
12232;SDS011;6179;51.748;8.728;2022-12-18T03:18:56;1.43;;;0.40;;
12232;SDS011;6179;51.748;8.728;2022-12-18T03:25:03;1.87;;;1.60;;
12232;SDS011;6179;51.748;8.728;2022-12-18T03:31:09;0.87;;;0.50;;
12232;SDS011;6179;51.748;8.728;2022-12-18T03:37:13;1.10;;;0.70;;
12232;SDS011;6179;51.748;8.728;2022-12-18T03:55:41;1.10;;;0.87;;
12232;SDS011;6179;51.748;8.728;2022-12-18T04:01:47;1.60;;;1.27;;
12232;SDS011;6179;51.748;8.728;2022-12-18T04:07:53;0.97;;;0.37;;
12232;SDS011;6179;51.748;8.728;2022-12-18T04:13:57;3.03;;;1.83;;
12232;SDS011;6179;51.748;8.728;2022-12-18T04:19:58;0.50;;;0.40;;
12232;SDS011;6179;51.748;8.728;2022-12-18T04:25:59;4.23;;;0.70;;
12232;SDS011;6179;51.748;8.728;2022-12-18T04:32:00;0.63;;;0.57;;
12232;SDS011;6179;51.748;8.728;2022-12-18T04:38:01;0.50;;;0.40;;
12232;SDS011;6179;51.748;8.728;2022-12-18T04:44:01;0.90;;;0.50;;
12232;SDS011;6179;51.748;8.728;2022-12-18T04:50:03;2.10;;;1.00;;
12232;SDS011;6179;51.748;8.728;2022-12-18T05:02:23;1.60;;;0.73;;
12232;SDS011;6179;51.748;8.728;2022-12-18T05:08:24;0.60;;;0.60;;
12232;SDS011;6179;51.748;8.728;2022-12-18T05:14:25;1.03;;;0.93;;
12232;SDS011;6179;51.748;8.728;2022-12-18T05:20:27;1.97;;;1.00;;
12232;SDS011;6179;51.748;8.728;2022-12-18T05:26:28;0.67;;;0.60;;
12232;SDS011;6179;51.748;8.728;2022-12-18T05:32:29;1.43;;;0.90;;
12232;SDS011;6179;51.748;8.728;2022-12-18T05:38:31;1.43;;;1.23;;
12232;SDS011;6179;51.748;8.728;2022-12-18T05:44:34;3.13;;;2.13;;
12232;SDS011;6179;51.748;8.728;2022-12-18T05:50:35;6.57;;;2.00;;
12232;SDS011;6179;51.748;8.728;2022-12-18T05:56:38;2.70;;;1.90;;
12232;SDS011;6179;51.748;8.728;2022-12-18T06:02:38;1.47;;;1.30;;
12232;SDS011;6179;51.748;8.728;2022-12-18T06:08:39;2.43;;;2.33;;
12232;SDS011;6179;51.748;8.728;2022-12-18T06:14:40;1.03;;;1.00;;
12232;SDS011;6179;51.748;8.728;2022-12-18T06:20:41;0.53;;;0.53;;
12232;SDS011;6179;51.748;8.728;2022-12-18T06:26:41;3.90;;;2.23;;
12232;SDS011;6179;51.748;8.728;2022-12-18T06:32:42;2.80;;;2.53;;
12232;SDS011;6179;51.748;8.728;2022-12-18T06:38:43;4.07;;;2.43;;
12232;SDS011;6179;51.748;8.728;2022-12-18T06:44:44;6.30;;;2.47;;
12232;SDS011;6179;51.748;8.728;2022-12-18T06:50:45;6.73;;;3.93;;
12232;SDS011;6179;51.748;8.728;2022-12-18T06:56:46;1.93;;;1.80;;
12232;SDS011;6179;51.748;8.728;2022-12-18T07:02:46;4.17;;;1.60;;
12232;SDS011;6179;51.748;8.728;2022-12-18T07:08:47;7.23;;;3.00;;
12232;SDS011;6179;51.748;8.728;2022-12-18T07:14:50;1.17;;;1.10;;
12232;SDS011;6179;51.748;8.728;2022-12-18T07:20:50;3.87;;;1.60;;
12232;SDS011;6179;51.748;8.728;2022-12-18T07:26:51;1.13;;;0.83;;
12232;SDS011;6179;51.748;8.728;2022-12-18T07:32:52;1.03;;;1.03;;
12232;SDS011;6179;51.748;8.728;2022-12-18T07:38:53;1.60;;;1.50;;
12232;SDS011;6179;51.748;8.728;2022-12-18T07:44:54;0.90;;;0.90;;
12232;SDS011;6179;51.748;8.728;2022-12-18T07:50:58;18.93;;;1.93;;
12232;SDS011;6179;51.748;8.728;2022-12-18T07:57:04;5.47;;;1.50;;
12232;SDS011;6179;51.748;8.728;2022-12-18T08:03:06;2.30;;;0.80;;
12232;SDS011;6179;51.748;8.728;2022-12-18T08:09:06;1.73;;;0.90;;
12232;SDS011;6179;51.748;8.728;2022-12-18T08:15:08;2.70;;;2.10;;
12232;SDS011;6179;51.748;8.728;2022-12-18T08:21:17;2.10;;;1.60;;
12232;SDS011;6179;51.748;8.728;2022-12-18T08:27:24;1.53;;;1.53;;
12232;SDS011;6179;51.748;8.728;2022-12-18T08:33:25;1.53;;;1.43;;
12232;SDS011;6179;51.748;8.728;2022-12-18T08:39:26;3.50;;;1.70;;
12232;SDS011;6179;51.748;8.728;2022-12-18T08:45:27;4.00;;;1.70;;
12232;SDS011;6179;51.748;8.728;2022-12-18T08:51:28;6.00;;;2.60;;
12232;SDS011;6179;51.748;8.728;2022-12-18T08:57:28;1.97;;;1.73;;
12232;SDS011;6179;51.748;8.728;2022-12-18T09:03:29;4.60;;;2.50;;
12232;SDS011;6179;51.748;8.728;2022-12-18T09:09:30;4.67;;;2.33;;
12232;SDS011;6179;51.748;8.728;2022-12-18T09:15:31;2.07;;;1.20;;
12232;SDS011;6179;51.748;8.728;2022-12-18T09:21:33;3.80;;;1.90;;
12232;SDS011;6179;51.748;8.728;2022-12-18T09:27:38;3.67;;;1.97;;
12232;SDS011;6179;51.748;8.728;2022-12-18T09:33:39;3.07;;;1.53;;
12232;SDS011;6179;51.748;8.728;2022-12-18T09:39:41;2.90;;;1.83;;
12232;SDS011;6179;51.748;8.728;2022-12-18T09:45:42;8.90;;;3.10;;
12232;SDS011;6179;51.748;8.728;2022-12-18T09:58:12;1.43;;;1.33;;
12232;SDS011;6179;51.748;8.728;2022-12-18T10:04:26;2.00;;;1.87;;
12232;SDS011;6179;51.748;8.728;2022-12-18T10:10:39;4.37;;;2.00;;
12232;SDS011;6179;51.748;8.728;2022-12-18T10:30:17;5.70;;;2.23;;
12232;SDS011;6179;51.748;8.728;2022-12-18T10:36:22;1.17;;;0.90;;
12232;SDS011;6179;51.748;8.728;2022-12-18T10:42:24;1.27;;;0.83;;
12232;SDS011;6179;51.748;8.728;2022-12-18T10:48:25;7.20;;;1.47;;
12232;SDS011;6179;51.748;8.728;2022-12-18T10:54:28;3.03;;;1.50;;
12232;SDS011;6179;51.748;8.728;2022-12-18T11:00:31;2.30;;;1.10;;
12232;SDS011;6179;51.748;8.728;2022-12-18T11:06:32;2.80;;;1.67;;
12232;SDS011;6179;51.748;8.728;2022-12-18T11:12:33;2.50;;;1.33;;
12232;SDS011;6179;51.748;8.728;2022-12-18T11:18:34;2.17;;;1.57;;
12232;SDS011;6179;51.748;8.728;2022-12-18T11:24:36;4.60;;;1.60;;
12232;SDS011;6179;51.748;8.728;2022-12-18T11:30:37;1.93;;;1.40;;
12232;SDS011;6179;51.748;8.728;2022-12-18T11:36:39;3.27;;;1.00;;
12232;SDS011;6179;51.748;8.728;2022-12-18T11:42:51;3.03;;;2.03;;
12232;SDS011;6179;51.748;8.728;2022-12-18T11:49:21;2.13;;;1.30;;
12232;SDS011;6179;51.748;8.728;2022-12-18T12:07:59;7.60;;;1.60;;
12232;SDS011;6179;51.748;8.728;2022-12-18T12:14:17;5.53;;;2.07;;
12232;SDS011;6179;51.748;8.728;2022-12-18T12:27:51;3.67;;;1.73;;
12232;SDS011;6179;51.748;8.728;2022-12-18T12:34:35;2.20;;;1.90;;
12232;SDS011;6179;51.748;8.728;2022-12-18T12:41:22;6.13;;;1.10;;
12232;SDS011;6179;51.748;8.728;2022-12-18T12:47:46;4.33;;;1.70;;
12232;SDS011;6179;51.748;8.728;2022-12-18T12:53:51;1.73;;;1.63;;
12232;SDS011;6179;51.748;8.728;2022-12-18T13:06:02;2.77;;;1.37;;
12232;SDS011;6179;51.748;8.728;2022-12-18T13:12:18;2.43;;;1.53;;
12232;SDS011;6179;51.748;8.728;2022-12-18T13:18:38;6.80;;;1.17;;
12232;SDS011;6179;51.748;8.728;2022-12-18T13:24:56;3.80;;;1.00;;
12232;SDS011;6179;51.748;8.728;2022-12-18T13:30:57;4.60;;;2.50;;
12232;SDS011;6179;51.748;8.728;2022-12-18T13:43:54;10.50;;;1.10;;
12232;SDS011;6179;51.748;8.728;2022-12-18T13:49:59;1.17;;;1.10;;
12232;SDS011;6179;51.748;8.728;2022-12-18T13:56:03;3.53;;;1.40;;
12232;SDS011;6179;51.748;8.728;2022-12-18T14:02:14;3.17;;;1.73;;
12232;SDS011;6179;51.748;8.728;2022-12-18T14:08:20;2.70;;;1.00;;
12232;SDS011;6179;51.748;8.728;2022-12-18T14:14:21;2.90;;;1.47;;
12232;SDS011;6179;51.748;8.728;2022-12-18T14:20:22;11.63;;;3.30;;
12232;SDS011;6179;51.748;8.728;2022-12-18T14:26:27;3.27;;;1.50;;
12232;SDS011;6179;51.748;8.728;2022-12-18T14:32:30;2.60;;;1.67;;
12232;SDS011;6179;51.748;8.728;2022-12-18T14:38:32;2.10;;;1.90;;
12232;SDS011;6179;51.748;8.728;2022-12-18T14:44:36;11.27;;;3.53;;
12232;SDS011;6179;51.748;8.728;2022-12-18T14:50:37;8.13;;;1.90;;
12232;SDS011;6179;51.748;8.728;2022-12-18T15:03:23;1.10;;;1.10;;
12232;SDS011;6179;51.748;8.728;2022-12-18T15:09:25;3.93;;;2.63;;
12232;SDS011;6179;51.748;8.728;2022-12-18T15:21:33;11.30;;;3.00;;
12232;SDS011;6179;51.748;8.728;2022-12-18T15:27:35;4.73;;;2.10;;
12232;SDS011;6179;51.748;8.728;2022-12-18T15:33:41;4.47;;;2.03;;
12232;SDS011;6179;51.748;8.728;2022-12-18T15:39:50;3.77;;;2.00;;
12232;SDS011;6179;51.748;8.728;2022-12-18T15:45:51;10.50;;;2.47;;
12232;SDS011;6179;51.748;8.728;2022-12-18T15:51:56;6.77;;;2.70;;
12232;SDS011;6179;51.748;8.728;2022-12-18T15:57:59;11.00;;;3.60;;
12232;SDS011;6179;51.748;8.728;2022-12-18T16:04:00;12.00;;;3.97;;
12232;SDS011;6179;51.748;8.728;2022-12-18T16:10:01;8.30;;;3.50;;
12232;SDS011;6179;51.748;8.728;2022-12-18T16:16:02;7.60;;;4.10;;
12232;SDS011;6179;51.748;8.728;2022-12-18T16:22:02;11.77;;;5.03;;
12232;SDS011;6179;51.748;8.728;2022-12-18T16:28:04;12.37;;;3.93;;
12232;SDS011;6179;51.748;8.728;2022-12-18T16:40:23;11.67;;;4.77;;
12232;SDS011;6179;51.748;8.728;2022-12-18T16:46:24;8.60;;;3.27;;
12232;SDS011;6179;51.748;8.728;2022-12-18T16:52:25;15.60;;;3.60;;
12232;SDS011;6179;51.748;8.728;2022-12-18T16:58:27;16.13;;;7.40;;
12232;SDS011;6179;51.748;8.728;2022-12-18T17:04:28;13.07;;;4.77;;
12232;SDS011;6179;51.748;8.728;2022-12-18T17:10:29;20.33;;;5.70;;
12232;SDS011;6179;51.748;8.728;2022-12-18T17:16:29;13.60;;;5.33;;
12232;SDS011;6179;51.748;8.728;2022-12-18T17:22:30;19.23;;;7.20;;
12232;SDS011;6179;51.748;8.728;2022-12-18T17:28:31;12.13;;;5.67;;
12232;SDS011;6179;51.748;8.728;2022-12-18T17:34:33;14.20;;;6.27;;
12232;SDS011;6179;51.748;8.728;2022-12-18T17:40:34;10.90;;;5.77;;
12232;SDS011;6179;51.748;8.728;2022-12-18T17:46:35;12.40;;;5.90;;
12232;SDS011;6179;51.748;8.728;2022-12-18T17:52:36;15.97;;;6.27;;
12232;SDS011;6179;51.748;8.728;2022-12-18T17:58:36;15.07;;;5.13;;
12232;SDS011;6179;51.748;8.728;2022-12-18T18:04:37;6.80;;;4.37;;
12232;SDS011;6179;51.748;8.728;2022-12-18T18:10:39;16.10;;;10.20;;
12232;SDS011;6179;51.748;8.728;2022-12-18T18:16:41;16.57;;;5.70;;
12232;SDS011;6179;51.748;8.728;2022-12-18T18:22:44;13.07;;;5.93;;
12232;SDS011;6179;51.748;8.728;2022-12-18T18:28:45;10.37;;;6.10;;
12232;SDS011;6179;51.748;8.728;2022-12-18T18:34:46;20.77;;;6.57;;
12232;SDS011;6179;51.748;8.728;2022-12-18T18:40:47;10.23;;;6.97;;
12232;SDS011;6179;51.748;8.728;2022-12-18T18:46:48;16.57;;;4.67;;
12232;SDS011;6179;51.748;8.728;2022-12-18T18:52:48;5.13;;;3.33;;
12232;SDS011;6179;51.748;8.728;2022-12-18T18:58:49;15.20;;;6.33;;
12232;SDS011;6179;51.748;8.728;2022-12-18T19:04:50;17.30;;;5.70;;
12232;SDS011;6179;51.748;8.728;2022-12-18T19:10:52;56.00;;;8.37;;
12232;SDS011;6179;51.748;8.728;2022-12-18T19:16:54;28.47;;;7.97;;
12232;SDS011;6179;51.748;8.728;2022-12-18T19:22:55;22.73;;;8.57;;
12232;SDS011;6179;51.748;8.728;2022-12-18T19:29:03;11.60;;;5.80;;
12232;SDS011;6179;51.748;8.728;2022-12-18T19:35:07;19.93;;;7.40;;
12232;SDS011;6179;51.748;8.728;2022-12-18T19:41:08;13.37;;;5.23;;
12232;SDS011;6179;51.748;8.728;2022-12-18T19:47:09;16.80;;;6.50;;
12232;SDS011;6179;51.748;8.728;2022-12-18T19:53:10;11.03;;;6.50;;
12232;SDS011;6179;51.748;8.728;2022-12-18T19:59:11;10.17;;;5.23;;
12232;SDS011;6179;51.748;8.728;2022-12-18T20:05:12;16.27;;;5.53;;
12232;SDS011;6179;51.748;8.728;2022-12-18T20:11:13;17.47;;;6.63;;
12232;SDS011;6179;51.748;8.728;2022-12-18T20:17:13;18.47;;;5.63;;
12232;SDS011;6179;51.748;8.728;2022-12-18T20:23:14;25.70;;;8.80;;
12232;SDS011;6179;51.748;8.728;2022-12-18T20:29:15;13.67;;;8.10;;
12232;SDS011;6179;51.748;8.728;2022-12-18T20:35:16;30.20;;;6.87;;
12232;SDS011;6179;51.748;8.728;2022-12-18T20:41:18;16.97;;;9.10;;
12232;SDS011;6179;51.748;8.728;2022-12-18T20:47:21;10.73;;;4.87;;
12232;SDS011;6179;51.748;8.728;2022-12-18T20:53:22;22.87;;;7.93;;
12232;SDS011;6179;51.748;8.728;2022-12-18T20:59:23;23.03;;;6.97;;
12232;SDS011;6179;51.748;8.728;2022-12-18T21:05:24;18.87;;;7.30;;
12232;SDS011;6179;51.748;8.728;2022-12-18T21:11:29;21.60;;;8.80;;
12232;SDS011;6179;51.748;8.728;2022-12-18T21:17:50;24.00;;;7.57;;
12232;SDS011;6179;51.748;8.728;2022-12-18T21:23:51;18.63;;;8.50;;
12232;SDS011;6179;51.748;8.728;2022-12-18T21:29:52;16.73;;;7.27;;
12232;SDS011;6179;51.748;8.728;2022-12-18T21:35:53;15.57;;;6.53;;
12232;SDS011;6179;51.748;8.728;2022-12-18T21:41:54;21.43;;;7.33;;
12232;SDS011;6179;51.748;8.728;2022-12-18T21:48:14;17.73;;;7.27;;
12232;SDS011;6179;51.748;8.728;2022-12-18T21:54:15;22.47;;;9.60;;
12232;SDS011;6179;51.748;8.728;2022-12-18T22:00:17;13.47;;;6.00;;
12232;SDS011;6179;51.748;8.728;2022-12-18T22:06:18;29.37;;;11.70;;
12232;SDS011;6179;51.748;8.728;2022-12-18T22:12:19;30.43;;;11.00;;
12232;SDS011;6179;51.748;8.728;2022-12-18T22:18:34;11.27;;;5.93;;
12232;SDS011;6179;51.748;8.728;2022-12-18T22:24:34;18.43;;;7.87;;
12232;SDS011;6179;51.748;8.728;2022-12-18T22:30:35;25.57;;;7.60;;
12232;SDS011;6179;51.748;8.728;2022-12-18T22:36:40;25.93;;;8.90;;
12232;SDS011;6179;51.748;8.728;2022-12-18T22:42:46;19.70;;;7.00;;
12232;SDS011;6179;51.748;8.728;2022-12-18T22:48:48;22.23;;;8.60;;
12232;SDS011;6179;51.748;8.728;2022-12-18T22:54:49;18.97;;;8.33;;
12232;SDS011;6179;51.748;8.728;2022-12-18T23:00:50;20.53;;;9.03;;
12232;SDS011;6179;51.748;8.728;2022-12-18T23:06:51;25.23;;;7.70;;
12232;SDS011;6179;51.748;8.728;2022-12-18T23:12:52;14.37;;;6.30;;
12232;SDS011;6179;51.748;8.728;2022-12-18T23:18:53;13.27;;;8.67;;
12232;SDS011;6179;51.748;8.728;2022-12-18T23:24:55;15.77;;;10.10;;
12232;SDS011;6179;51.748;8.728;2022-12-18T23:31:00;17.57;;;8.80;;
12232;SDS011;6179;51.748;8.728;2022-12-18T23:37:04;16.47;;;6.80;;
12232;SDS011;6179;51.748;8.728;2022-12-18T23:43:06;19.43;;;5.70;;
12232;SDS011;6179;51.748;8.728;2022-12-18T23:49:06;22.47;;;6.40;;
12232;SDS011;6179;51.748;8.728;2022-12-18T23:55:08;38.60;;;9.57;;
